Terminal Aerodrome Forecast
Issued by NWS

Home | Current Version | Previous Version | Text Only | Print | Product List | Glossary On
Versions: 1 2 3 4 5 6 7 8 9 10 11 12 13 14 15
000
FTUS46 KSGX 231720
TAFONT
TAF
KONT 231720Z 2318/2424 24006KT P6SM SCT025
     FM232000 25012G19KT P6SM FEW025
     FM240500 VRB06KT P6SM FEW025 FEW250
     FM242200 25010KT P6SM FEW250=

USA.gov is the U.S. government's official web portal to all federal, state and local government web resources and services.